Time;durP1;ratioP1;P1;durP2;ratioP2;P2;SDS_P1;SDS_P2;PMS_P1;PMS_P2;Temp;Humidity;BMP_temperature;BMP_pressure;BME280_temperature;BME280_humidity;BME280_pressure;Samples;Min_cycle;Max_cycle;Signal;HPM_P1;HPM_P2
2023/12/15 00:00:52;;;;;;;10.57;6.70;;;;;;;5.63;81.20;101576.16;2535405;28;20052;-79
2023/12/15 00:02:06;;;;;;;10.55;5.80;;;;;;;5.63;81.48;101575.28;2534596;28;20229;-80
2023/12/15 00:03:20;;;;;;;10.23;5.72;;;;;;;5.62;81.57;101589.94;2535164;28;20052;-80
2023/12/15 00:04:33;;;;;;;9.75;6.82;;;;;;;5.62;81.32;101579.56;2533991;28;20046;-80
2023/12/15 00:05:48;;;;;;;9.45;6.78;;;;;;;5.63;81.39;101589.13;2535326;28;20046;-80
2023/12/15 00:07:02;;;;;;;7.40;5.63;;;;;;;5.61;81.43;101584.72;2535157;28;20404;-78
2023/12/15 00:08:16;;;;;;;8.43;5.00;;;;;;;5.60;81.32;101589.03;2542928;28;20055;-78
2023/12/15 00:09:29;;;;;;;7.88;6.80;;;;;;;5.58;81.51;101593.28;2545135;28;20078;-80
2023/12/15 00:10:44;;;;;;;10.95;7.22;;;;;;;5.55;81.34;101598.41;2545456;28;20052;-80
2023/12/15 00:11:59;;;;;;;7.97;5.85;;;;;;;5.54;81.06;101598.34;2545697;28;20059;-81
2023/12/15 00:13:13;;;;;;;10.60;6.35;;;;;;;5.51;81.31;101591.38;2544945;28;20040;-80
2023/12/15 00:14:26;;;;;;;12.27;6.70;;;;;;;5.49;81.50;101600.78;2542994;28;20049;-77
2023/12/15 00:15:41;;;;;;;10.73;6.35;;;;;;;5.47;81.03;101590.41;2541492;28;20080;-80
2023/12/15 00:16:54;;;;;;;11.68;7.28;;;;;;;5.45;81.13;101597.25;2533602;28;20103;-77
2023/12/15 00:18:09;;;;;;;10.00;7.00;;;;;;;5.47;81.28;101597.28;2534629;28;20494;-80
2023/12/15 00:19:22;;;;;;;7.57;6.03;;;;;;;5.46;81.45;101591.22;2534493;28;20613;-81
2023/12/15 00:20:37;;;;;;;14.48;6.35;;;;;;;5.47;81.32;101594.69;2535605;28;20057;-81
2023/12/15 00:21:50;;;;;;;10.10;6.97;;;;;;;5.48;81.22;101601.66;2543820;28;20048;-80
2023/12/15 00:23:04;;;;;;;8.00;5.45;;;;;;;5.47;81.34;101602.47;2545020;28;20048;-80
2023/12/15 00:24:18;;;;;;;8.50;4.78;;;;;;;5.47;81.17;101603.38;2544314;28;20505;-80
2023/12/15 00:25:32;;;;;;;7.35;5.28;;;;;;;5.49;81.33;101612.88;2543325;28;20056;-78
2023/12/15 00:26:46;;;;;;;6.07;5.35;;;;;;;5.47;81.34;101599.88;2534116;28;20049;-80
2023/12/15 00:28:01;;;;;;;10.20;6.20;;;;;;;5.49;81.35;101607.69;2534064;28;20045;-80
2023/12/15 00:29:15;;;;;;;13.02;6.28;;;;;;;5.50;81.09;101609.44;2533679;28;20046;-78
2023/12/15 00:30:29;;;;;;;12.65;6.00;;;;;;;5.50;81.41;101606.84;2542317;28;20056;-80
2023/12/15 00:31:43;;;;;;;16.02;6.35;;;;;;;5.50;81.38;101606.84;2544281;28;20045;-80
2023/12/15 00:32:57;;;;;;;7.65;6.25;;;;;;;5.51;81.48;101606.91;2538585;28;20041;-79
2023/12/15 00:34:10;;;;;;;12.35;6.75;;;;;;;5.51;81.37;101608.63;2532115;28;20530;-79
2023/12/15 00:35:25;;;;;;;10.70;5.57;;;;;;;5.50;81.21;101602.56;2532151;28;20096;-77
2023/12/15 00:36:38;;;;;;;11.15;6.50;;;;;;;5.49;81.42;101608.56;2531302;28;20061;-80
2023/12/15 00:37:53;;;;;;;9.65;7.10;;;;;;;5.49;81.23;101615.47;2532176;28;20498;-77
2023/12/15 00:39:06;;;;;;;40.15;20.58;;;;;;;5.47;81.07;101615.41;2532048;28;20491;-78
2023/12/15 00:40:22;;;;;;;12.10;7.70;;;;;;;5.45;80.96;101617.09;2532024;28;20061;-78
2023/12/15 00:41:36;;;;;;;8.50;6.03;;;;;;;5.43;80.98;101608.41;2531268;28;20418;-78
2023/12/15 00:42:50;;;;;;;8.07;5.82;;;;;;;5.42;81.06;101617.00;2532288;28;20054;-78
2023/12/15 00:44:05;;;;;;;7.65;5.57;;;;;;;5.40;80.77;101616.97;2532295;28;20057;-77
2023/12/15 00:45:19;;;;;;;8.52;5.82;;;;;;;5.40;81.03;101613.50;2531469;28;20129;-78
2023/12/15 00:46:33;;;;;;;8.95;5.88;;;;;;;5.39;80.97;101619.50;2532054;28;20050;-78
2023/12/15 00:47:47;;;;;;;6.45;5.07;;;;;;;5.37;80.97;101618.56;2532006;28;20054;-77
2023/12/15 00:49:00;;;;;;;8.50;5.47;;;;;;;5.36;80.84;101615.09;2531793;28;20398;-78
2023/12/15 00:50:15;;;;;;;10.18;5.90;;;;;;;5.35;80.75;101618.53;2531579;28;20052;-78
2023/12/15 00:51:28;;;;;;;10.48;6.00;;;;;;;5.35;80.79;101621.13;2539753;28;20048;-77
2023/12/15 00:52:43;;;;;;;10.30;5.55;;;;;;;5.35;80.69;101618.53;2533481;28;20050;-76
2023/12/15 00:53:56;;;;;;;9.13;5.68;;;;;;;5.34;80.72;101629.72;2539446;28;20053;-77
2023/12/15 00:55:11;;;;;;;10.63;5.95;;;;;;;5.32;80.67;101631.41;2533814;28;20045;-77
2023/12/15 00:56:25;;;;;;;8.32;5.72;;;;;;;5.30;80.63;101624.44;2533667;28;20064;-77
2023/12/15 00:57:39;;;;;;;9.48;5.75;;;;;;;5.28;80.60;101623.50;2534401;28;20464;-77
2023/12/15 00:58:53;;;;;;;7.10;5.35;;;;;;;5.27;80.54;101625.22;2540298;28;20049;-77
2023/12/15 01:00:10;;;;;;;7.82;5.32;;;;;;;5.25;80.42;101626.88;2533655;28;20045;-78
2023/12/15 01:01:24;;;;;;;13.98;6.53;;;;;;;5.25;80.55;101627.75;2533169;28;20049;-78
2023/12/15 01:02:38;;;;;;;8.73;5.07;;;;;;;5.24;80.37;101626.00;2533534;28;20053;-77
2023/12/15 01:03:51;;;;;;;13.40;5.93;;;;;;;5.24;80.40;101633.78;2533568;28;20073;-78
2023/12/15 01:05:06;;;;;;;7.40;5.20;;;;;;;5.22;80.41;101637.16;2533197;28;20041;-77
2023/12/15 01:06:20;;;;;;;5.80;4.95;;;;;;;5.23;80.43;101644.94;2533593;28;20061;-78
2023/12/15 01:07:34;;;;;;;8.55;5.20;;;;;;;5.22;80.60;101653.56;2533390;28;20049;-79
2023/12/15 01:08:47;;;;;;;11.95;7.07;;;;;;;5.23;80.58;101657.88;2533038;28;20053;-79
2023/12/15 01:10:02;;;;;;;8.98;5.60;;;;;;;5.23;80.74;101654.41;2537774;28;20047;-77
2023/12/15 01:11:15;;;;;;;13.32;7.07;;;;;;;5.24;80.59;101663.97;2537239;28;20479;-81
2023/12/15 01:12:30;;;;;;;10.27;6.38;;;;;;;5.23;80.61;101665.66;2533038;28;20057;-80
2023/12/15 01:13:43;;;;;;;5.03;4.38;;;;;;;5.23;80.84;101659.59;2532959;28;20050;-77
2023/12/15 01:14:58;;;;;;;7.35;5.03;;;;;;;5.21;80.86;101669.94;2533507;28;20052;-78
2023/12/15 01:16:12;;;;;;;7.65;4.95;;;;;;;5.21;80.71;101672.50;2533648;28;20045;-79
2023/12/15 01:17:27;;;;;;;9.02;5.90;;;;;;;5.22;80.80;101675.97;2533023;28;20053;-78
2023/12/15 01:18:40;;;;;;;8.95;6.22;;;;;;;5.22;80.86;101671.66;2533450;28;20049;-78
2023/12/15 01:19:55;;;;;;;6.60;5.05;;;;;;;5.20;80.65;101675.91;2533530;28;20067;-77
2023/12/15 01:21:08;;;;;;;8.30;5.45;;;;;;;5.18;80.48;101669.81;2533045;28;20041;-79
2023/12/15 01:22:23;;;;;;;8.13;5.70;;;;;;;5.18;80.53;101672.41;2533275;28;20520;-78
2023/12/15 01:23:37;;;;;;;8.93;5.80;;;;;;;5.15;80.69;101674.91;2533318;28;20045;-78
2023/12/15 01:24:52;;;;;;;8.20;6.22;;;;;;;5.14;80.55;101667.97;2533050;28;20056;-77
2023/12/15 01:26:05;;;;;;;7.50;5.68;;;;;;;5.14;80.44;101667.97;2533435;28;20057;-79
2023/12/15 01:27:20;;;;;;;12.65;5.82;;;;;;;5.15;80.54;101679.19;2532936;28;20053;-76
2023/12/15 01:28:33;;;;;;;7.72;5.50;;;;;;;5.15;80.64;101679.19;2532865;28;20052;-77
2023/12/15 01:29:48;;;;;;;10.50;5.72;;;;;;;5.14;80.45;101688.69;2533405;28;20048;-77
2023/12/15 01:31:02;;;;;;;9.07;5.53;;;;;;;5.14;80.43;101683.50;2533453;28;20056;-77
2023/12/15 01:32:18;;;;;;;8.57;6.35;;;;;;;5.14;80.58;101688.69;2533426;28;20045;-78
2023/12/15 01:33:32;;;;;;;10.35;6.70;;;;;;;5.14;80.27;101693.00;2532956;28;20041;-79
2023/12/15 01:34:46;;;;;;;8.43;6.03;;;;;;;5.14;80.45;101693.00;2533547;28;20080;-78
2023/12/15 01:36:00;;;;;;;8.35;5.78;;;;;;;5.14;80.44;101703.34;2533407;28;20501;-78
2023/12/15 01:37:14;;;;;;;9.25;5.82;;;;;;;5.14;80.32;101693.84;2538684;28;20045;-77
2023/12/15 01:38:28;;;;;;;8.48;6.53;;;;;;;5.14;80.39;101699.03;2543488;28;20052;-79
2023/12/15 01:39:42;;;;;;;5.75;5.13;;;;;;;5.14;80.29;101693.00;2535185;28;20049;-78
2023/12/15 01:40:55;;;;;;;8.20;5.90;;;;;;;5.13;80.13;101692.06;2542813;28;20060;-78
2023/12/15 01:42:10;;;;;;;7.18;5.43;;;;;;;5.13;80.03;101696.38;2538011;28;20045;-77
2023/12/15 01:43:23;;;;;;;11.50;5.47;;;;;;;5.12;80.11;101700.69;2533412;28;20089;-78
2023/12/15 01:44:38;;;;;;;9.75;5.88;;;;;;;5.12;79.97;101700.69;2533300;28;20053;-78
2023/12/15 01:45:51;;;;;;;7.97;6.60;;;;;;;5.10;80.18;101692.00;2540127;28;20049;-78
2023/12/15 01:47:05;;;;;;;10.50;4.95;;;;;;;5.09;79.99;101697.16;2537994;28;20127;-79
2023/12/15 01:48:21;;;;;;;6.97;5.53;;;;;;;5.07;80.24;101697.09;2543542;28;20498;-79
2023/12/15 01:49:36;;;;;;;11.00;5.65;;;;;;;5.05;79.89;101696.16;2542940;28;20048;-80
2023/12/15 01:50:49;;;;;;;6.25;5.40;;;;;;;5.05;80.05;101698.72;2543781;28;20049;-78
2023/12/15 01:52:04;;;;;;;8.23;5.47;;;;;;;5.06;80.01;101702.19;2543278;28;20059;-79
2023/12/15 01:53:18;;;;;;;14.40;6.97;;;;;;;5.05;79.94;101692.69;2536210;28;20053;-78
2023/12/15 01:54:32;;;;;;;7.82;6.10;;;;;;;5.03;79.82;101700.38;2533339;28;20432;-78
2023/12/15 01:55:46;;;;;;;7.55;5.38;;;;;;;5.02;80.05;101704.69;2533252;28;20049;-78
2023/12/15 01:57:00;;;;;;;7.70;6.78;;;;;;;5.02;79.97;101706.41;2532797;28;20525;-79
2023/12/15 01:58:15;;;;;;;6.78;4.93;;;;;;;5.02;79.91;101706.41;2533250;28;20487;-79
2023/12/15 01:59:40;;;;;;;11.82;5.57;;;;;;;5.02;80.03;101715.03;2533332;28;20053;-78
2023/12/15 02:00:55;;;;;;;11.65;6.45;;;;;;;5.02;80.08;101703.81;2528907;28;20095;-81
2023/12/15 02:02:08;;;;;;;8.95;5.95;;;;;;;5.03;79.95;101718.50;2538186;28;20045;-79
2023/12/15 02:03:24;;;;;;;9.82;5.68;;;;;;;5.03;79.99;101708.16;2533008;28;20052;-78
2023/12/15 02:06:48;;;;;;;8.93;4.82;;;;;;;5.02;79.81;101712.47;2537206;28;20071;-79
2023/12/15 02:08:02;;;;;;;6.53;5.20;;;;;;;5.01;79.86;101712.44;2533019;28;20045;-79
2023/12/15 02:09:16;;;;;;;7.25;5.60;;;;;;;4.99;80.00;101717.53;2538476;28;20049;-78
2023/12/15 02:10:30;;;;;;;9.05;6.45;;;;;;;4.98;80.00;101722.66;2535017;28;20517;-78
2023/12/15 02:11:44;;;;;;;10.15;6.03;;;;;;;5.00;79.89;101726.16;2533308;28;20053;-78
2023/12/15 02:12:58;;;;;;;8.57;5.00;;;;;;;5.00;79.84;101728.75;2536232;28;20037;-77
2023/12/15 02:14:12;;;;;;;11.77;5.78;;;;;;;4.99;79.92;101730.47;2543393;28;20115;-79
2023/12/15 02:15:26;;;;;;;7.55;5.97;;;;;;;5.00;79.98;101736.53;2535929;28;20052;-79
2023/12/15 02:16:40;;;;;;;7.40;5.43;;;;;;;5.00;80.05;101726.16;2532635;28;20090;-79
2023/12/15 02:17:54;;;;;;;9.75;5.63;;;;;;;4.99;80.04;101737.38;2533453;28;20049;-78
2023/12/15 02:19:09;;;;;;;11.55;5.97;;;;;;;4.98;79.97;101730.41;2537531;28;20477;-80
2023/12/15 02:20:23;;;;;;;10.32;6.07;;;;;;;4.96;80.07;101732.97;2535838;28;20049;-77
2023/12/15 02:21:37;;;;;;;11.00;5.75;;;;;;;4.98;80.01;101727.81;2540997;28;20045;-78
2023/12/15 02:22:52;;;;;;;9.45;5.95;;;;;;;4.98;80.07;101733.00;2540449;28;20453;-77
2023/12/15 02:24:06;;;;;;;9.40;5.50;;;;;;;4.98;80.08;101738.19;2537531;28;20056;-78
2023/12/15 02:25:20;;;;;;;9.10;5.45;;;;;;;4.97;79.96;101734.72;2535898;28;20411;-78
2023/12/15 02:26:34;;;;;;;6.55;4.97;;;;;;;4.96;79.88;101739.88;2541153;28;20055;-79
2023/12/15 02:27:48;;;;;;;8.13;5.72;;;;;;;4.95;79.84;101740.66;2534867;28;20430;-78
2023/12/15 02:29:02;;;;;;;7.50;6.00;;;;;;;4.94;79.99;101741.50;2542563;28;20048;-77
2023/12/15 02:30:16;;;;;;;12.57;6.57;;;;;;;4.94;79.91;101741.50;2535963;28;20049;-79
2023/12/15 02:31:30;;;;;;;7.38;5.80;;;;;;;4.94;79.99;101742.38;2532838;28;20144;-77
2023/12/15 02:32:43;;;;;;;7.18;6.07;;;;;;;4.94;79.97;101741.50;2531271;28;20072;-79
2023/12/15 02:33:58;;;;;;;9.45;6.25;;;;;;;4.96;80.13;101732.09;2535758;28;20049;-78
2023/12/15 02:35:12;;;;;;;14.00;6.15;;;;;;;4.96;80.00;101739.88;2537173;28;20060;-78
2023/12/15 02:36:26;;;;;;;7.78;6.18;;;;;;;4.95;79.94;101738.97;2539080;28;20048;-77
2023/12/15 02:37:39;;;;;;;9.07;5.95;;;;;;;4.94;79.99;101744.97;2533566;28;20049;-77
2023/12/15 02:38:55;;;;;;;9.63;6.38;;;;;;;4.94;79.99;101744.09;2539341;28;20049;-78
2023/12/15 02:40:09;;;;;;;7.38;5.88;;;;;;;4.94;80.06;101744.09;2532403;28;20080;-77
2023/12/15 02:41:24;;;;;;;9.63;6.40;;;;;;;4.95;80.08;101749.31;2531743;28;20056;-77
2023/12/15 02:42:37;;;;;;;10.68;5.97;;;;;;;4.96;80.13;101748.50;2540978;28;20049;-77
2023/12/15 02:43:52;;;;;;;8.45;7.10;;;;;;;4.96;80.26;101752.78;2535148;28;20049;-76
2023/12/15 02:45:08;;;;;;;12.27;7.13;;;;;;;4.95;80.27;101749.31;2538103;28;20061;-77
2023/12/15 02:46:22;;;;;;;8.80;6.43;;;;;;;4.94;80.29;101751.88;2532822;28;20069;-78
2023/12/15 02:47:35;;;;;;;10.48;7.13;;;;;;;4.94;80.27;101750.16;2541071;28;20060;-78
2023/12/15 02:48:50;;;;;;;10.15;5.80;;;;;;;4.96;80.29;101757.97;2532362;28;20057;-78
2023/12/15 02:50:04;;;;;;;10.20;7.07;;;;;;;4.94;80.29;101752.72;2536623;28;20052;-78
2023/12/15 02:51:26;;;;;;;10.57;6.90;;;;;;;4.95;80.18;101758.78;2536846;28;20095;-77
2023/12/15 02:52:39;;;;;;;12.32;6.97;;;;;;;4.93;80.20;101757.84;2532031;28;20053;-78
2023/12/15 02:53:55;;;;;;;9.82;7.15;;;;;;;4.92;80.34;101754.38;2535392;28;20422;-77
2023/12/15 02:55:11;;;;;;;8.68;7.00;;;;;;;4.94;80.45;101757.03;2542913;28;20498;-77
2023/12/15 02:56:24;;;;;;;10.18;7.05;;;;;;;4.93;80.32;101761.34;2535951;28;20076;-79
2023/12/15 02:57:38;;;;;;;11.20;8.93;;;;;;;4.94;80.22;101762.22;2531801;28;20149;-78
2023/12/15 02:58:52;;;;;;;13.60;7.68;;;;;;;4.95;80.33;101756.19;2532883;28;20049;-80
2023/12/15 03:00:08;;;;;;;9.18;7.10;;;;;;;4.94;80.33;101763.09;2532481;28;20041;-77
2023/12/15 03:01:21;;;;;;;12.63;7.65;;;;;;;4.94;80.22;101767.38;2531357;28;20057;-77
2023/12/15 03:02:35;;;;;;;10.45;6.75;;;;;;;4.91;80.17;101760.41;2540708;28;20486;-78
2023/12/15 03:03:49;;;;;;;13.73;8.27;;;;;;;4.91;80.31;101768.16;2540616;28;20049;-77
2023/12/15 03:05:04;;;;;;;11.95;6.93;;;;;;;4.92;80.14;101761.28;2532058;28;20041;-81
2023/12/15 03:06:17;;;;;;;11.70;7.30;;;;;;;4.91;80.48;101768.16;2532653;28;20045;-78
2023/12/15 03:07:31;;;;;;;11.25;8.48;;;;;;;4.89;80.39;101758.59;2532646;28;20049;-78
2023/12/15 03:08:45;;;;;;;13.88;8.90;;;;;;;4.88;80.42;101762.00;2532030;28;20406;-77
2023/12/15 03:10:01;;;;;;;9.43;7.75;;;;;;;4.87;80.48;101761.13;2532192;28;20050;-81
2023/12/15 03:11:14;;;;;;;13.60;7.95;;;;;;;4.86;80.55;101764.56;2532582;28;20042;-78
2023/12/15 03:12:30;;;;;;;18.55;9.13;;;;;;;4.87;80.33;101760.25;2532411;28;20064;-78
2023/12/15 03:13:43;;;;;;;16.35;8.57;;;;;;;4.87;80.61;101762.84;2532893;28;20056;-78
2023/12/15 03:14:58;;;;;;;13.40;8.82;;;;;;;4.86;80.47;101758.50;2539256;28;20470;-79
2023/12/15 03:16:12;;;;;;;12.85;9.07;;;;;;;4.84;80.45;101766.19;2531784;28;20052;-78
2023/12/15 03:17:26;;;;;;;10.02;8.23;;;;;;;4.85;80.43;101769.66;2531913;28;20076;-77
2023/12/15 03:18:40;;;;;;;12.10;9.20;;;;;;;4.84;80.46;101765.31;2541234;28;20052;-78
2023/12/15 03:19:54;;;;;;;13.98;9.38;;;;;;;4.84;80.36;101768.78;2540014;28;20044;-77
2023/12/15 03:21:07;;;;;;;15.00;8.52;;;;;;;4.81;80.52;101772.16;2531870;28;20487;-77
2023/12/15 03:22:22;;;;;;;12.75;9.10;;;;;;;4.82;80.39;101773.03;2532067;28;20056;-78
2023/12/15 03:23:36;;;;;;;13.82;9.40;;;;;;;4.81;80.53;101769.56;2532562;28;20046;-76
2023/12/15 03:24:50;;;;;;;13.75;8.80;;;;;;;4.81;80.54;101779.91;2524079;28;20426;-78
2023/12/15 03:26:06;;;;;;;19.02;8.75;;;;;;;4.82;80.54;101780.78;2532565;28;20049;-78
2023/12/15 03:27:20;;;;;;;16.33;9.20;;;;;;;4.82;80.58;101784.25;2532430;28;20049;-78
2023/12/15 03:28:34;;;;;;;15.00;8.82;;;;;;;4.83;80.59;101779.97;2532075;28;20054;-78
2023/12/15 03:29:48;;;;;;;13.85;10.23;;;;;;;4.83;80.61;101785.16;2533778;28;20052;-78
2023/12/15 03:31:02;;;;;;;14.75;8.57;;;;;;;4.84;80.63;101786.88;2542195;28;20041;-78
2023/12/15 03:32:16;;;;;;;14.52;9.05;;;;;;;4.85;80.65;101782.59;2542312;28;20048;-79
2023/12/15 03:33:33;;;;;;;15.23;9.98;;;;;;;4.85;80.57;101780.00;2534536;28;20060;-77
2023/12/15 03:34:48;;;;;;;17.13;9.50;;;;;;;4.84;80.65;101783.44;2532278;28;20064;-77
2023/12/15 03:36:02;;;;;;;15.05;9.45;;;;;;;4.83;80.58;101779.97;2532591;28;20129;-76
2023/12/15 03:37:17;;;;;;;13.70;10.30;;;;;;;4.82;80.69;101786.81;2531801;28;20056;-78
2023/12/15 03:38:32;;;;;;;14.30;9.25;;;;;;;4.82;80.62;101789.41;2532347;28;20049;-77
2023/12/15 03:39:47;;;;;;;15.60;9.82;;;;;;;4.82;80.52;101784.25;2532035;28;20429;-78
2023/12/15 03:41:00;;;;;;;21.00;11.20;;;;;;;4.81;80.67;101784.22;2531739;28;20049;-78
2023/12/15 03:42:16;;;;;;;19.90;11.40;;;;;;;4.84;80.72;101788.59;2532202;28;20053;-79
2023/12/15 03:43:29;;;;;;;14.07;10.15;;;;;;;4.84;80.81;101793.78;2532481;28;20514;-79
2023/12/15 03:44:44;;;;;;;18.48;10.70;;;;;;;4.84;80.62;101788.59;2531675;28;20061;-78
2023/12/15 03:45:57;;;;;;;13.88;9.07;;;;;;;4.84;80.95;101786.03;2532442;28;20064;-78
2023/12/15 03:47:11;;;;;;;14.75;9.25;;;;;;;4.86;80.73;101790.41;2532390;28;20071;-77
2023/12/15 03:48:25;;;;;;;15.75;10.57;;;;;;;4.85;80.64;101788.63;2532389;28;20487;-78
2023/12/15 03:49:39;;;;;;;12.30;9.65;;;;;;;4.85;80.63;101792.94;2532055;28;20052;-78
2023/12/15 03:50:54;;;;;;;15.43;9.90;;;;;;;4.87;80.84;101791.28;2542112;28;20072;-78
2023/12/15 03:52:08;;;;;;;13.95;11.40;;;;;;;4.86;80.63;101792.13;2537850;28;20410;-77
2023/12/15 03:53:21;;;;;;;15.82;11.13;;;;;;;4.86;80.69;101789.53;2531250;28;20049;-79
2023/12/15 03:54:36;;;;;;;14.60;9.48;;;;;;;4.84;80.74;101793.78;2532184;28;20053;-77
2023/12/15 03:55:49;;;;;;;14.85;10.45;;;;;;;4.86;80.85;101799.88;2532184;28;20045;-78
2023/12/15 03:57:04;;;;;;;16.50;10.10;;;;;;;4.85;80.77;101798.97;2531738;28;20674;-78
2023/12/15 03:58:19;;;;;;;15.77;11.20;;;;;;;4.84;81.03;101801.53;2532267;28;20048;-79
2023/12/15 03:59:33;;;;;;;15.50;10.02;;;;;;;4.82;80.64;101802.34;2532095;28;20136;-78
2023/12/15 04:00:47;;;;;;;16.88;10.82;;;;;;;4.82;80.81;101806.66;2532725;28;20050;-78
2023/12/15 04:02:01;;;;;;;20.15;11.18;;;;;;;4.82;80.86;101802.34;2538997;28;20056;-78
2023/12/15 04:03:15;;;;;;;18.92;10.52;;;;;;;4.81;80.75;101808.34;2532121;28;20056;-77
2023/12/15 04:04:29;;;;;;;18.17;11.93;;;;;;;4.81;80.75;101798.00;2539173;28;20072;-78
2023/12/15 04:05:42;;;;;;;21.38;12.90;;;;;;;4.81;80.95;101799.72;2532644;28;20426;-78
2023/12/15 04:06:57;;;;;;;18.98;11.02;;;;;;;4.82;80.82;101804.94;2531958;28;20049;-81
2023/12/15 04:08:10;;;;;;;15.35;11.18;;;;;;;4.82;80.95;101804.94;2532177;28;20045;-78
2023/12/15 04:09:25;;;;;;;18.15;12.07;;;;;;;4.84;81.06;101809.31;2531685;28;20395;-78
2023/12/15 04:10:39;;;;;;;19.45;11.02;;;;;;;4.85;81.00;101808.47;2531864;28;20079;-79
2023/12/15 04:11:53;;;;;;;14.45;9.98;;;;;;;4.85;80.98;101808.47;2523794;28;20050;-78
2023/12/15 04:13:07;;;;;;;20.35;11.95;;;;;;;4.84;80.90;101812.75;2531336;28;20128;-77
2023/12/15 04:14:23;;;;;;;18.30;10.70;;;;;;;4.85;80.97;101805.88;2532173;28;20054;-79
2023/12/15 04:15:38;;;;;;;21.55;12.30;;;;;;;4.84;80.98;101812.75;2532662;28;20522;-81
2023/12/15 04:16:52;;;;;;;21.67;12.43;;;;;;;4.84;80.87;101814.47;2543082;28;20131;-79
2023/12/15 04:18:06;;;;;;;18.15;11.75;;;;;;;4.84;81.10;101817.06;2539618;28;20048;-77
2023/12/15 04:19:21;;;;;;;21.08;13.13;;;;;;;4.84;81.09;101822.22;2532876;28;20100;-77
2023/12/15 04:20:34;;;;;;;18.88;11.45;;;;;;;4.85;81.16;101830.03;2531989;28;20045;-80
2023/12/15 04:21:49;;;;;;;22.90;13.63;;;;;;;4.86;81.16;101829.22;2533084;28;20060;-79
2023/12/15 04:23:02;;;;;;;23.08;11.60;;;;;;;4.86;81.07;101830.94;2538721;28;20052;-81
2023/12/15 04:24:17;;;;;;;20.88;12.30;;;;;;;4.87;81.21;101832.66;2532222;28;20684;-78
2023/12/15 04:25:31;;;;;;;19.02;11.50;;;;;;;4.86;81.07;101831.81;2531631;28;20056;-78
2023/12/15 04:26:45;;;;;;;23.88;11.60;;;;;;;4.87;81.09;101833.53;2532080;28;20056;-79
2023/12/15 04:27:59;;;;;;;19.88;12.57;;;;;;;4.87;80.96;101837.84;2532013;28;20061;-79
2023/12/15 04:29:13;;;;;;;18.20;12.82;;;;;;;4.88;81.33;101837.91;2533511;28;20517;-78
2023/12/15 04:30:28;;;;;;;18.48;12.07;;;;;;;4.86;81.14;101839.56;2533794;28;20049;-80
2023/12/15 04:31:43;;;;;;;24.95;12.77;;;;;;;4.86;81.16;101834.38;2541812;28;20076;-79
2023/12/15 04:32:56;;;;;;;19.65;12.20;;;;;;;4.87;81.14;101850.78;2541197;28;20055;-80
2023/12/15 04:34:11;;;;;;;17.80;10.70;;;;;;;4.87;81.24;101843.03;2534243;28;20477;-78
2023/12/15 04:35:24;;;;;;;16.30;10.35;;;;;;;4.89;81.25;101851.72;2534242;28;20054;-79
2023/12/15 04:36:39;;;;;;;16.02;11.95;;;;;;;4.90;81.25;101850.88;2533462;28;20550;-79
2023/12/15 04:37:53;;;;;;;18.45;11.07;;;;;;;4.90;81.11;101845.69;2542135;28;20045;-78
2023/12/15 04:39:07;;;;;;;24.35;13.30;;;;;;;4.90;81.27;101846.56;2534036;28;20511;-78
2023/12/15 04:40:21;;;;;;;16.65;12.25;;;;;;;4.90;81.08;101848.28;2533812;28;20494;-79
2023/12/15 04:41:35;;;;;;;19.77;13.02;;;;;;;4.90;81.17;101850.88;2533263;28;20103;-78
2023/12/15 04:42:49;;;;;;;19.77;13.02;;;;;;;4.92;81.33;101851.81;2533961;28;20068;-80
2023/12/15 04:44:03;;;;;;;24.67;12.43;;;;;;;4.91;81.25;101857.84;2533990;28;20049;-78
2023/12/15 04:45:17;;;;;;;24.10;14.27;;;;;;;4.91;81.14;101850.06;2533295;28;20046;-79
2023/12/15 04:46:33;;;;;;;22.35;12.68;;;;;;;4.92;81.29;101859.56;2533708;28;20049;-78
2023/12/15 04:47:47;;;;;;;21.00;12.38;;;;;;;4.92;81.39;101862.16;2533445;28;20049;-79
2023/12/15 04:49:01;;;;;;;25.45;12.05;;;;;;;4.92;81.29;101862.16;2533314;28;20564;-79
2023/12/15 04:50:14;;;;;;;20.27;13.73;;;;;;;4.92;81.20;101857.88;2533846;28;20042;-79
2023/12/15 04:51:29;;;;;;;21.23;14.20;;;;;;;4.93;81.29;101862.22;2533941;28;20410;-79
2023/12/15 04:52:42;;;;;;;19.55;13.27;;;;;;;4.93;81.24;101862.22;2533416;28;20054;-79
2023/12/15 04:53:57;;;;;;;21.83;12.60;;;;;;;4.92;81.36;101857.00;2533774;28;20487;-78
2023/12/15 04:55:10;;;;;;;17.33;12.18;;;;;;;4.92;81.44;101859.56;2533920;28;20053;-78
2023/12/15 04:56:25;;;;;;;24.20;13.35;;;;;;;4.92;81.43;101865.63;2533668;28;20049;-79
2023/12/15 04:57:38;;;;;;;19.17;13.15;;;;;;;4.92;81.39;101867.34;2533250;28;20046;-78
2023/12/15 04:58:53;;;;;;;22.10;13.18;;;;;;;4.92;81.38;101868.22;2534118;28;20045;-78
2023/12/15 05:00:07;;;;;;;17.98;12.70;;;;;;;4.94;81.39;101873.44;2533815;28;20395;-78
2023/12/15 05:01:22;;;;;;;21.25;12.68;;;;;;;4.95;81.41;101876.06;2533299;28;20050;-79
2023/12/15 05:02:36;;;;;;;21.23;11.75;;;;;;;4.94;81.29;101879.50;2534260;28;20053;-79
2023/12/15 05:03:51;;;;;;;24.35;12.30;;;;;;;4.94;81.25;101876.91;2534229;28;20056;-79
2023/12/15 05:05:06;;;;;;;18.52;12.90;;;;;;;4.94;81.29;101882.09;2533701;28;20499;-79
2023/12/15 05:06:22;;;;;;;18.05;12.93;;;;;;;4.95;81.38;101876.06;2533568;28;20049;-78
2023/12/15 05:07:36;;;;;;;25.65;13.98;;;;;;;4.95;81.38;101883.81;2533808;28;20056;-79
2023/12/15 05:08:51;;;;;;;20.67;12.15;;;;;;;4.94;81.37;101881.22;2533522;28;20073;-78
2023/12/15 05:10:06;;;;;;;21.13;12.90;;;;;;;4.95;81.55;101890.72;2533610;28;20050;-77
2023/12/15 05:11:21;;;;;;;23.25;14.48;;;;;;;4.95;81.36;101889.00;2533784;28;20084;-78
2023/12/15 05:12:35;;;;;;;22.40;13.45;;;;;;;4.95;81.36;101896.75;2533219;28;20084;-78
2023/12/15 05:13:49;;;;;;;27.42;15.60;;;;;;;4.98;81.51;101901.16;2533949;28;20055;-79
2023/12/15 05:15:03;;;;;;;19.02;12.82;;;;;;;4.99;81.57;101901.22;2533644;28;20057;-77
2023/12/15 05:16:18;;;;;;;19.98;13.90;;;;;;;5.00;81.59;101904.69;2533741;28;20050;-77
2023/12/15 05:17:32;;;;;;;23.15;15.82;;;;;;;5.00;81.53;101907.28;2533293;28;20049;-77
2023/12/15 05:18:47;;;;;;;27.45;19.27;;;;;;;5.01;81.57;101909.06;2533741;28;20136;-78
2023/12/15 05:20:02;;;;;;;24.10;14.93;;;;;;;5.01;81.83;101914.22;2533542;28;20543;-78
2023/12/15 05:21:16;;;;;;;18.63;13.40;;;;;;;5.02;81.59;101911.69;2533194;28;20526;-77
2023/12/15 05:22:30;;;;;;;19.92;12.95;;;;;;;5.04;81.54;101919.50;2533065;28;20064;-78
2023/12/15 05:23:44;;;;;;;23.38;16.35;;;;;;;5.05;81.59;101910.03;2533518;28;20053;-78
2023/12/15 05:24:57;;;;;;;46.55;18.73;;;;;;;5.03;81.46;101909.97;2533277;28;20048;-78
2023/12/15 05:26:12;;;;;;;28.95;16.42;;;;;;;5.03;81.58;101910.88;2533778;28;20054;-79
2023/12/15 05:27:26;;;;;;;23.00;13.70;;;;;;;5.03;81.49;101917.72;2533574;28;20513;-78
2023/12/15 05:28:40;;;;;;;21.70;13.52;;;;;;;5.02;81.64;101921.16;2533242;28;20057;-77
2023/12/15 05:29:53;;;;;;;34.25;21.95;;;;;;;5.01;81.49;101916.81;2533573;28;20049;-79
2023/12/15 05:31:08;;;;;;;21.98;13.63;;;;;;;5.01;81.66;101915.09;2533500;28;20056;-78
2023/12/15 05:32:21;;;;;;;21.77;14.75;;;;;;;5.00;81.49;101920.22;2533504;28;20045;-79
2023/12/15 05:33:36;;;;;;;173.55;115.35;;;;;;;4.99;81.48;101921.06;2533128;28;20097;-78
2023/12/15 05:34:50;;;;;;;27.65;19.25;;;;;;;4.98;81.39;101919.28;2533636;28;20051;-78
2023/12/15 05:36:05;;;;;;;22.42;15.38;;;;;;;4.98;81.42;101935.69;2533551;28;20057;-78
2023/12/15 05:37:19;;;;;;;23.27;14.45;;;;;;;4.98;81.47;101934.78;2533020;28;20400;-78
2023/12/15 05:38:33;;;;;;;28.92;18.25;;;;;;;4.96;81.38;101936.47;2533566;28;20068;-80
2023/12/15 05:39:47;;;;;;;28.23;16.77;;;;;;;4.94;81.47;101936.41;2532784;28;20420;-78
2023/12/15 05:41:01;;;;;;;26.38;14.65;;;;;;;4.92;81.35;101932.88;2532816;28;20045;-78
2023/12/15 05:42:15;;;;;;;25.52;16.00;;;;;;;4.90;81.15;101941.41;2533071;28;20416;-79
2023/12/15 05:43:30;;;;;;;21.60;12.98;;;;;;;4.88;81.32;101933.63;2533724;28;20051;-77
2023/12/15 05:44:43;;;;;;;30.05;14.35;;;;;;;4.85;81.35;101938.66;2533040;28;20045;-77
2023/12/15 05:45:58;;;;;;;23.13;14.02;;;;;;;4.85;81.26;101938.66;2533391;28;20045;-77
2023/12/15 05:47:11;;;;;;;21.08;14.73;;;;;;;4.81;81.39;101945.44;2533586;28;20057;-78